Time;durP1;ratioP1;P1;durP2;ratioP2;P2;SDS_P1;SDS_P2;PMS_P1;PMS_P2;Temp;Humidity;BMP_temperature;BMP_pressure;BME280_temperature;BME280_humidity;BME280_pressure;Samples;Min_cycle;Max_cycle;Signal;HPM_P1;HPM_P2
2021/08/01 00:00:21;;;;;;;12.32;6.38;;;;;;;15.15;94.67;95553.84;5096314;28;20127;-77
2021/08/01 00:02:47;;;;;;;14.23;6.82;;;;;;;15.22;95.23;95556.16;5096000;28;20403;-78
2021/08/01 00:05:13;;;;;;;14.93;7.47;;;;;;;15.04;93.67;95557.69;5095637;28;20040;-76
2021/08/01 00:07:39;;;;;;;14.82;7.35;;;;;;;14.99;94.30;95559.59;5095946;28;20036;-77
2021/08/01 00:10:07;;;;;;;13.15;6.53;;;;;;;14.98;95.03;95561.44;5095742;28;20067;-77
2021/08/01 00:12:34;;;;;;;14.32;7.30;;;;;;;15.14;95.87;95567.38;5098410;28;20083;-77
2021/08/01 00:15:02;;;;;;;12.23;5.75;;;;;;;15.20;94.01;95569.69;5098575;28;20503;-77
2021/08/01 00:17:27;;;;;;;10.70;5.38;;;;;;;15.09;92.37;95578.03;5098436;28;20100;-77
2021/08/01 00:19:53;;;;;;;11.25;5.50;;;;;;;14.95;93.21;95573.38;5098748;28;20135;-77
2021/08/01 00:22:20;;;;;;;17.00;9.98;;;;;;;14.91;94.04;95576.88;5098965;28;20047;-77
2021/08/01 00:24:48;;;;;;;13.68;6.80;;;;;;;14.86;96.21;95577.69;5081080;28;20042;-77
2021/08/01 00:27:13;;;;;;;15.45;7.28;;;;;;;14.81;97.17;95571.66;5099655;28;20071;-77
2021/08/01 00:29:39;;;;;;;15.52;7.72;;;;;;;14.89;97.47;95577.13;5114984;28;20044;-76
2021/08/01 00:32:08;;;;;;;16.02;8.57;;;;;;;14.87;98.52;95578.50;5108425;28;20093;-78
2021/08/01 00:34:36;;;;;;;14.45;7.40;;;;;;;14.89;97.37;95574.47;5105906;28;20180;-78
2021/08/01 00:37:02;;;;;;;;;;;;;;;14.84;97.40;95569.22;5104946;28;20423;-78
2021/08/01 00:39:28;;;;;;;13.32;7.40;;;;;;;14.73;97.74;95567.75;5100621;28;19920;-77
2021/08/01 00:41:54;;;;;;;15.15;7.45;;;;;;;14.69;97.79;95561.44;5082102;28;20112;-77
2021/08/01 00:44:20;;;;;;;15.23;7.80;;;;;;;14.77;98.31;95570.63;5100025;28;20059;-78
2021/08/01 00:46:45;;;;;;;17.33;8.40;;;;;;;14.69;98.30;95562.22;5081601;28;20480;-78
2021/08/01 00:49:14;;;;;;;14.75;7.93;;;;;;;14.68;98.26;95570.41;5099838;28;20040;-78
2021/08/01 00:51:41;;;;;;;16.13;8.65;;;;;;;14.70;98.70;95578.91;5090672;28;20063;-78
2021/08/01 00:54:06;;;;;;;14.98;8.05;;;;;;;14.77;99.10;95581.22;5100268;28;20040;-78
2021/08/01 00:56:32;;;;;;;16.48;7.80;;;;;;;14.76;99.05;95591.03;5099417;28;20499;-78
2021/08/01 00:58:58;;;;;;;15.48;8.10;;;;;;;14.71;99.40;95588.41;5100354;28;20061;-78
2021/08/01 01:01:29;;;;;;;17.48;8.80;;;;;;;14.71;99.81;95580.47;5100007;28;20048;-78
2021/08/01 01:04:04;;;;;;;17.50;9.15;;;;;;;14.75;100.00;95580.72;5098637;28;20044;-78
2021/08/01 01:06:43;;;;;;;15.65;7.97;;;;;;;15.03;98.21;95581.81;5097816;28;20043;-77
2021/08/01 01:09:16;;;;;;;16.85;7.75;;;;;;;14.86;98.90;95593.59;5098445;28;20144;-77
2021/08/01 01:11:45;;;;;;;15.85;7.65;;;;;;;14.83;98.89;95591.50;5098567;28;20051;-77
2021/08/01 01:14:16;;;;;;;15.98;7.68;;;;;;;14.78;99.31;95590.75;5097851;28;20032;-77
2021/08/01 01:16:48;;;;;;;15.88;7.18;;;;;;;14.69;98.99;95593.22;5096711;28;20103;-77
2021/08/01 01:19:22;;;;;;;13.95;6.72;;;;;;;14.60;98.76;95589.56;5097428;28;20056;-77
2021/08/01 01:21:56;;;;;;;13.52;7.18;;;;;;;14.49;99.06;95588.03;5096258;28;20063;-77
2021/08/01 01:24:25;;;;;;;14.90;7.18;;;;;;;14.49;99.26;95572.97;5096104;28;20044;-77
2021/08/01 01:27:00;;;;;;;12.57;6.15;;;;;;;14.49;99.34;95559.72;5077601;28;20058;-77
2021/08/01 01:29:32;;;;;;;13.65;6.03;;;;;;;14.47;98.47;95547.78;5096470;28;20042;-77
2021/08/01 01:32:04;;;;;;;12.95;6.38;;;;;;;14.54;98.44;95538.53;5078381;28;20044;-78
2021/08/01 01:34:43;;;;;;;13.77;6.43;;;;;;;14.51;98.61;95527.69;5097652;28;20071;-77
2021/08/01 01:37:12;;;;;;;13.35;5.57;;;;;;;14.25;97.61;95524.41;5097318;28;20040;-77
2021/08/01 01:39:39;;;;;;;14.10;6.00;;;;;;;14.14;97.85;95521.03;5099967;28;20044;-78
2021/08/01 01:42:06;;;;;;;12.00;5.60;;;;;;;13.92;98.11;95535.44;5117236;28;20051;-78
2021/08/01 01:44:32;;;;;;;13.30;6.35;;;;;;;13.93;98.80;95539.66;5117119;28;20340;-78
2021/08/01 01:46:59;;;;;;;14.82;6.63;;;;;;;13.91;98.89;95541.00;5116931;28;20109;-79
2021/08/01 01:49:25;;;;;;;17.88;6.80;;;;;;;13.93;99.61;95539.66;5115015;28;20048;-79
2021/08/01 01:51:53;;;;;;;17.92;6.88;;;;;;;13.95;100.00;95530.69;5100050;28;20287;-79
2021/08/01 01:54:21;;;;;;;16.85;7.22;;;;;;;14.02;100.00;95521.38;5100584;28;20087;-79
2021/08/01 01:56:48;;;;;;;15.35;8.10;;;;;;;14.17;100.00;95523.13;5099459;28;20120;-78
2021/08/01 01:59:15;;;;;;;18.73;7.43;;;;;;;14.17;99.52;95518.63;5097663;28;20040;-78
2021/08/01 02:01:44;;;;;;;16.10;7.73;;;;;;;14.18;99.59;95508.84;5088539;28;20051;-76
2021/08/01 02:04:10;;;;;;;14.63;7.97;;;;;;;14.11;99.75;95511.81;5113497;28;20059;-77
2021/08/01 02:06:38;;;;;;;15.50;7.03;;;;;;;14.12;99.48;95512.59;5114938;28;20050;-77
2021/08/01 02:09:10;;;;;;;15.00;7.25;;;;;;;14.17;99.36;95517.84;5102559;28;20108;-77
2021/08/01 02:11:45;;;;;;;17.65;6.85;;;;;;;14.18;99.59;95516.78;5103015;28;20073;-77
2021/08/01 02:14:15;;;;;;;15.07;7.07;;;;;;;14.13;99.00;95506.25;5085368;28;20145;-77
2021/08/01 02:16:48;;;;;;;15.75;7.60;;;;;;;14.26;99.84;95510.91;5100898;28;20043;-78
2021/08/01 02:19:15;;;;;;;17.85;8.27;;;;;;;14.17;99.93;95505.41;5096864;28;20048;-77
2021/08/01 02:21:43;;;;;;;16.30;7.75;;;;;;;14.23;99.59;95503.53;5089526;28;20044;-77
2021/08/01 02:24:10;;;;;;;14.57;7.60;;;;;;;14.12;99.13;95513.38;5112441;28;20048;-77
2021/08/01 02:26:41;;;;;;;16.67;7.95;;;;;;;14.30;99.64;95511.13;5098975;28;20097;-78
2021/08/01 02:29:09;;;;;;;20.35;8.43;;;;;;;14.32;99.19;95515.09;5104652;28;20040;-78
2021/08/01 02:31:35;;;;;;;13.50;7.38;;;;;;;14.34;97.70;95520.13;5098164;28;20043;-78
2021/08/01 02:34:01;;;;;;;18.23;7.70;;;;;;;14.30;98.27;95527.81;5105875;28;20044;-77
2021/08/01 02:36:31;;;;;;;15.23;7.18;;;;;;;14.27;98.76;95524.94;5100748;28;20047;-78
2021/08/01 02:38:58;;;;;;;17.27;8.20;;;;;;;14.30;99.92;95533.09;5100629;28;20044;-79
2021/08/01 02:41:28;;;;;;;17.27;8.10;;;;;;;14.31;99.65;95528.59;5098919;28;20077;-79
2021/08/01 02:43:59;;;;;;;16.30;7.78;;;;;;;14.28;98.11;95540.53;5080515;28;20134;-78
2021/08/01 02:46:28;;;;;;;14.68;6.72;;;;;;;14.34;98.35;95538.63;5079378;28;20067;-80
2021/08/01 02:48:56;;;;;;;18.02;8.55;;;;;;;14.27;99.40;95538.94;5079839;28;20047;-77
2021/08/01 02:51:25;;;;;;;16.13;7.93;;;;;;;14.26;99.61;95532.09;5100106;28;20499;-78
2021/08/01 02:53:55;;;;;;;16.33;7.95;;;;;;;14.36;99.48;95534.63;5097935;28;20044;-77
2021/08/01 02:56:22;;;;;;;17.02;8.07;;;;;;;14.50;99.33;95539.34;5096874;28;20042;-76
2021/08/01 02:58:53;;;;;;;15.88;7.60;;;;;;;14.48;99.13;95538.84;5095931;28;20055;-78
2021/08/01 03:01:20;;;;;;;16.58;7.82;;;;;;;14.54;99.12;95549.09;5096953;28;20043;-78
2021/08/01 03:03:47;;;;;;;14.80;7.53;;;;;;;14.54;99.37;95549.09;5096256;28;20478;-78
2021/08/01 03:06:14;;;;;;;16.73;7.95;;;;;;;14.48;99.29;95554.72;5098262;28;20044;-78
2021/08/01 03:08:40;;;;;;;17.58;8.20;;;;;;;14.48;99.47;95557.38;5080643;28;20554;-78
2021/08/01 03:11:08;;;;;;;16.67;8.82;;;;;;;14.47;99.21;95555.72;5097181;28;20130;-78
2021/08/01 03:13:34;;;;;;;13.98;7.93;;;;;;;14.38;99.01;95561.63;5096349;28;20043;-79
2021/08/01 03:16:00;;;;;;;15.95;8.25;;;;;;;14.48;98.97;95565.31;5097713;28;20098;-78
2021/08/01 03:18:27;;;;;;;14.90;7.55;;;;;;;14.44;98.72;95565.81;5079411;28;20040;-78
2021/08/01 03:20:52;;;;;;;17.40;7.75;;;;;;;14.37;98.86;95573.28;5096867;28;20080;-78
2021/08/01 03:23:18;;;;;;;14.35;7.25;;;;;;;14.44;98.70;95575.59;5096555;28;20044;-79
2021/08/01 03:25:44;;;;;;;15.95;7.85;;;;;;;14.42;98.87;95575.91;5097471;28;20099;-78
2021/08/01 03:28:11;;;;;;;16.67;7.68;;;;;;;14.47;98.15;95571.59;5096318;28;20032;-78
2021/08/01 03:30:40;;;;;;;13.80;7.40;;;;;;;14.53;97.78;95574.00;5078479;28;20138;-78
2021/08/01 03:33:06;;;;;;;16.38;7.57;;;;;;;14.45;98.39;95577.97;5080734;28;20063;-79
2021/08/01 03:35:33;;;;;;;15.18;7.43;;;;;;;14.48;98.42;95568.75;5098948;28;20059;-78
2021/08/01 03:37:58;;;;;;;13.98;7.55;;;;;;;14.45;98.26;95577.97;5078154;28;20540;-78
2021/08/01 03:40:27;;;;;;;15.00;7.90;;;;;;;14.48;98.34;95571.38;5097710;28;20040;-78
2021/08/01 03:42:55;;;;;;;13.55;7.90;;;;;;;14.41;98.89;95571.63;5104857;28;20059;-78
2021/08/01 03:45:21;;;;;;;15.43;7.80;;;;;;;14.31;98.68;95574.34;5091799;28;20085;-79
2021/08/01 03:47:47;;;;;;;14.05;7.57;;;;;;;14.31;98.68;95576.22;5104956;28;20044;-79
2021/08/01 03:50:13;;;;;;;14.00;7.45;;;;;;;14.31;98.75;95581.50;5105168;28;20044;-79
2021/08/01 03:52:40;;;;;;;14.10;7.18;;;;;;;14.41;99.12;95579.56;5105001;28;20051;-79
2021/08/01 03:55:06;;;;;;;15.20;7.88;;;;;;;14.28;99.36;95587.34;5103000;28;20048;-79
2021/08/01 03:57:32;;;;;;;15.00;7.53;;;;;;;14.35;98.40;95591.25;5103150;28;20063;-79
2021/08/01 03:59:58;;;;;;;13.45;7.32;;;;;;;14.24;99.09;95587.09;5114465;28;20039;-78
2021/08/01 04:02:23;;;;;;;15.68;7.13;;;;;;;14.24;99.08;95591.59;5104966;28;20476;-78
2021/08/01 04:04:53;;;;;;;13.88;7.57;;;;;;;14.25;99.71;95593.97;5101369;28;20082;-79
2021/08/01 04:07:18;;;;;;;13.80;7.10;;;;;;;14.22;99.70;95593.75;5101226;28;20040;-79
2021/08/01 04:09:45;;;;;;;14.88;7.20;;;;;;;14.19;98.56;95597.72;5083893;28;20042;-78
2021/08/01 04:12:14;;;;;;;10.57;5.68;;;;;;;14.07;98.06;95597.25;5104718;28;20036;-79
2021/08/01 04:14:42;;;;;;;11.88;4.60;;;;;;;13.99;96.76;95601.28;5118806;28;20040;-79
2021/08/01 04:17:09;;;;;;;9.55;4.07;;;;;;;13.87;95.80;95606.84;5116278;28;20044;-79
2021/08/01 04:19:34;;;;;;;7.68;3.50;;;;;;;13.77;93.85;95609.53;5085476;28;20117;-79
2021/08/01 04:22:00;;;;;;;8.98;3.53;;;;;;;13.53;95.33;95606.72;5100751;28;20040;-81
2021/08/01 04:24:25;;;;;;;9.88;4.28;;;;;;;13.65;96.53;95611.69;5103924;28;20068;-79
2021/08/01 04:26:52;;;;;;;9.30;3.70;;;;;;;13.48;95.80;95613.84;5106769;28;20451;-79
2021/08/01 04:29:18;;;;;;;12.05;4.55;;;;;;;13.47;97.09;95605.16;5108976;28;20046;-80
2021/08/01 04:31:44;;;;;;;11.18;3.80;;;;;;;13.34;95.39;95609.13;5106398;28;20048;-78
2021/08/01 04:34:11;;;;;;;8.43;4.10;;;;;;;13.37;97.09;95615.72;5102338;28;20111;-78
2021/08/01 04:36:36;;;;;;;11.63;3.80;;;;;;;13.37;95.75;95611.25;5102240;28;20039;-78
2021/08/01 04:39:02;;;;;;;10.45;3.60;;;;;;;13.33;96.72;95612.81;5101023;28;20277;-78
2021/08/01 04:41:28;;;;;;;9.57;4.63;;;;;;;13.49;97.75;95618.88;5083407;28;20067;-79
2021/08/01 04:43:57;;;;;;;8.75;3.80;;;;;;;13.38;96.17;95612.03;5102023;28;20051;-79
2021/08/01 04:46:25;;;;;;;10.13;4.00;;;;;;;13.45;97.77;95617.81;5083040;28;20040;-80
2021/08/01 04:48:50;;;;;;;11.35;4.53;;;;;;;13.54;97.79;95610.13;5102072;28;20492;-79
2021/08/01 04:51:16;;;;;;;11.15;4.22;;;;;;;13.51;97.46;95611.47;5101964;28;20125;-79
2021/08/01 04:53:44;;;;;;;9.82;4.28;;;;;;;13.56;97.53;95613.28;5083045;28;20395;-79
2021/08/01 04:56:09;;;;;;;;;;;;;;;13.44;97.39;95604.88;5083324;28;20044;-80
2021/08/01 04:58:35;;;;;;;8.90;4.25;;;;;;;13.61;96.92;95610.63;5101477;28;19963;-80
2021/08/01 05:01:09;;;;;;;8.57;4.22;;;;;;;13.56;97.37;95611.47;5101469;28;20043;-80
2021/08/01 05:03:35;;;;;;;10.40;4.20;;;;;;;13.50;97.66;95604.59;5083842;28;20047;-80
2021/08/01 05:06:00;;;;;;;9.70;4.47;;;;;;;13.55;98.36;95606.44;5101586;28;20120;-79
2021/08/01 05:08:28;;;;;;;10.15;4.63;;;;;;;13.63;97.56;95600.59;5101053;28;20040;-79
2021/08/01 05:10:54;;;;;;;11.38;4.80;;;;;;;13.56;98.22;95598.25;5082613;28;20109;-79
2021/08/01 05:13:21;;;;;;;12.82;5.55;;;;;;;13.63;98.94;95590.03;5101646;28;20044;-79
2021/08/01 05:15:47;;;;;;;12.98;5.32;;;;;;;13.63;99.32;95587.41;5082363;28;20044;-80
2021/08/01 05:18:14;;;;;;;11.02;5.40;;;;;;;13.70;99.01;95593.16;5100943;28;20047;-79
2021/08/01 05:20:44;;;;;;;9.95;4.93;;;;;;;13.80;98.96;95577.28;5101344;28;20105;-79
2021/08/01 05:23:12;;;;;;;9.15;4.10;;;;;;;13.86;97.61;95586.75;5100301;28;20047;-79
2021/08/01 05:25:38;;;;;;;10.35;4.63;;;;;;;13.86;97.98;95580.69;5100156;28;20056;-79
2021/08/01 05:28:04;;;;;;;9.75;4.25;;;;;;;13.84;96.12;95575.69;5100352;28;20032;-79
2021/08/01 05:30:30;;;;;;;8.45;3.85;;;;;;;13.88;95.71;95573.25;5098082;28;20040;-79
2021/08/01 05:32:57;;;;;;;9.48;4.15;;;;;;;13.74;96.38;95578.38;5100149;28;20123;-79
2021/08/01 05:35:24;;;;;;;11.23;4.10;;;;;;;13.96;96.50;95580.66;5100140;28;20044;-79
2021/08/01 05:37:49;;;;;;;10.27;4.03;;;;;;;14.01;96.87;95579.84;5099227;28;20102;-79
2021/08/01 05:40:18;;;;;;;10.52;4.03;;;;;;;14.03;96.71;95580.34;5099228;28;20414;-79
2021/08/01 05:42:43;;;;;;;9.32;4.20;;;;;;;13.96;96.38;95574.56;5081093;28;20084;-79
2021/08/01 05:45:10;;;;;;;9.00;3.97;;;;;;;13.88;96.39;95570.63;5098793;28;20047;-79
2021/08/01 05:47:37;;;;;;;10.27;4.40;;;;;;;13.84;97.37;95583.63;5080381;28;20043;-78
2021/08/01 05:50:04;;;;;;;10.30;4.43;;;;;;;13.96;97.30;95590.44;5098800;28;20122;-79
2021/08/01 05:52:31;;;;;;;9.13;4.03;;;;;;;14.04;96.72;95589.84;5098935;28;20122;-78
2021/08/01 05:54:56;;;;;;;8.90;4.30;;;;;;;13.93;96.46;95592.53;5098693;28;20120;-79
2021/08/01 05:57:23;;;;;;;8.43;3.80;;;;;;;13.97;96.35;95592.78;5100668;28;20076;-78
2021/08/01 05:59:50;;;;;;;9.98;4.80;;;;;;;14.08;96.90;95596.97;5112354;28;20027;-77
2021/08/01 06:02:18;;;;;;;9.20;4.07;;;;;;;14.09;96.61;95595.13;5114872;28;20059;-78
2021/08/01 06:04:44;;;;;;;12.63;4.72;;;;;;;14.22;96.52;95605.09;5093628;28;20131;-78
2021/08/01 06:07:10;;;;;;;9.38;4.18;;;;;;;14.35;96.34;95604.50;5103768;28;20128;-77
2021/08/01 06:09:39;;;;;;;9.65;4.40;;;;;;;14.39;97.09;95608.19;5115936;28;20036;-77
2021/08/01 06:12:10;;;;;;;11.98;4.90;;;;;;;14.35;97.34;95603.69;5107558;28;20105;-77
2021/08/01 06:14:36;;;;;;;9.38;4.70;;;;;;;14.56;96.59;95599.09;5099512;28;20032;-77
2021/08/01 06:17:02;;;;;;;10.00;4.68;;;;;;;14.49;96.35;95606.56;5100079;28;20040;-78
2021/08/01 06:19:27;;;;;;;10.05;4.25;;;;;;;14.56;96.90;95612.34;5098398;28;20044;-78
2021/08/01 06:21:53;;;;;;;11.95;4.82;;;;;;;14.64;96.28;95619.72;5097279;28;20125;-78
2021/08/01 06:24:19;;;;;;;8.40;4.18;;;;;;;14.56;94.77;95618.41;5096938;28;20044;-78
2021/08/01 06:26:46;;;;;;;10.05;4.35;;;;;;;14.34;96.00;95624.09;5097516;28;20114;-78
2021/08/01 06:29:11;;;;;;;13.43;4.35;;;;;;;14.27;96.65;95628.91;5097646;28;20043;-78
2021/08/01 06:31:37;;;;;;;12.68;4.75;;;;;;;14.42;96.59;95618.22;5099046;28;20079;-77
2021/08/01 06:34:03;;;;;;;15.13;4.15;;;;;;;14.57;96.92;95616.56;5099596;28;20050;-78
2021/08/01 06:36:29;;;;;;;9.60;4.25;;;;;;;14.33;95.99;95617.22;5098354;28;20067;-78
2021/08/01 06:38:54;;;;;;;9.60;4.38;;;;;;;14.42;96.14;95618.22;5079866;28;20047;-78
2021/08/01 06:41:20;;;;;;;12.70;5.88;;;;;;;14.40;96.58;95623.00;5078249;28;20500;-77
2021/08/01 06:43:49;;;;;;;10.75;5.00;;;;;;;14.47;96.50;95630.66;5095426;28;20043;-78
2021/08/01 06:46:15;;;;;;;8.88;4.30;;;;;;;14.45;95.78;95636.19;5095970;28;20036;-79
2021/08/01 06:48:44;;;;;;;9.45;5.03;;;;;;;14.49;96.89;95638.34;5095589;28;20483;-78
2021/08/01 06:51:09;;;;;;;;;;;;;;;14.63;96.50;95647.22;5095745;28;20050;-78
2021/08/01 06:53:37;;;;;;;9.60;4.53;;;;;;;14.43;96.77;95653.41;5097126;28;20302;-77
2021/08/01 06:56:06;;;;;;;10.77;4.72;;;;;;;14.25;96.78;95657.44;5101972;28;20126;-78
2021/08/01 06:58:32;;;;;;;8.60;4.18;;;;;;;14.33;96.79;95659.53;5097610;28;20055;-78
2021/08/01 07:00:59;;;;;;;10.50;4.25;;;;;;;14.24;96.24;95660.38;5097131;28;20135;-78
2021/08/01 07:03:26;;;;;;;13.93;5.28;;;;;;;14.29;96.08;95655.84;5096872;28;20040;-77
2021/08/01 07:05:52;;;;;;;11.82;5.55;;;;;;;14.33;96.06;95664.06;5097965;28;20044;-78
2021/08/01 07:08:17;;;;;;;9.40;4.47;;;;;;;14.30;96.67;95672.50;5096075;28;20097;-78
2021/08/01 07:10:43;;;;;;;10.55;5.20;;;;;;;14.18;97.49;95673.63;5097674;28;20052;-79
2021/08/01 07:13:09;;;;;;;11.63;5.15;;;;;;;14.07;97.40;95661.50;5097936;28;20038;-79
2021/08/01 07:15:37;;;;;;;12.68;5.25;;;;;;;14.01;97.15;95673.19;5099874;28;20123;-79
2021/08/01 07:18:05;;;;;;;;;;;;;;;14.01;98.06;95677.66;5093370;28;20131;-79
2021/08/01 07:20:33;;;;;;;;;;;;;;;13.97;97.87;95681.91;5102460;28;19920;-79
2021/08/01 07:22:58;;;;;;;;;;;;;;;13.88;97.71;95679.00;5102782;28;19927;-79
2021/08/01 07:25:24;;;;;;;10.43;4.72;;;;;;;14.14;97.29;95677.09;5084400;28;20233;-79
2021/08/01 07:27:53;;;;;;;11.95;4.78;;;;;;;14.25;96.90;95689.19;5102799;28;20119;-79
2021/08/01 07:30:19;;;;;;;11.27;4.78;;;;;;;14.17;97.98;95692.41;5102813;28;20044;-79
2021/08/01 07:32:45;;;;;;;10.93;4.88;;;;;;;14.27;97.15;95691.59;5087856;28;20055;-79
2021/08/01 07:35:12;;;;;;;10.95;4.70;;;;;;;14.37;97.38;95694.19;5103513;28;20044;-79
2021/08/01 07:37:38;;;;;;;10.30;4.50;;;;;;;14.45;96.17;95688.31;5103068;28;20043;-78
2021/08/01 07:40:05;;;;;;;9.55;4.40;;;;;;;14.56;95.65;95679.28;5084228;28;20491;-78
2021/08/01 07:42:31;;;;;;;9.75;4.25;;;;;;;14.42;94.99;95678.28;5082667;28;20353;-79
2021/08/01 07:45:02;;;;;;;11.25;4.13;;;;;;;14.55;94.56;95682.22;5106574;28;20572;-79
2021/08/01 07:47:33;;;;;;;10.35;4.53;;;;;;;14.52;94.94;95683.53;5086858;28;20091;-79
2021/08/01 07:50:00;;;;;;;9.95;4.45;;;;;;;14.55;96.50;95680.38;5116788;28;20077;-78
2021/08/01 07:52:28;;;;;;;10.82;5.53;;;;;;;14.78;95.81;95675.47;5117208;28;20124;-79
2021/08/01 07:54:58;;;;;;;15.43;5.20;;;;;;;14.71;96.63;95678.41;5100182;28;20040;-77
2021/08/01 07:57:25;;;;;;;13.38;5.57;;;;;;;14.78;95.97;95678.91;5116873;28;20058;-78
2021/08/01 07:59:51;;;;;;;11.07;5.53;;;;;;;14.77;96.21;95681.81;5100044;28;20043;-78
2021/08/01 08:02:17;;;;;;;11.15;5.13;;;;;;;14.90;95.65;95681.19;5114282;28;20143;-78
2021/08/01 08:04:42;;;;;;;9.90;5.30;;;;;;;14.84;96.21;95680.44;5115820;28;20096;-79
2021/08/01 08:07:08;;;;;;;12.98;5.53;;;;;;;14.90;96.67;95681.19;5103178;28;20131;-79
2021/08/01 08:09:35;;;;;;;10.95;5.72;;;;;;;15.02;96.86;95675.56;5102419;28;20089;-79
2021/08/01 08:12:01;;;;;;;12.75;5.82;;;;;;;14.94;95.93;95688.31;5101342;28;20396;-79
2021/08/01 08:14:27;;;;;;;10.10;5.03;;;;;;;14.96;96.45;95678.25;5103443;28;20526;-79
2021/08/01 08:16:54;;;;;;;11.45;4.90;;;;;;;15.10;95.00;95664.38;5084723;28;20047;-79
2021/08/01 08:19:20;;;;;;;10.25;4.68;;;;;;;14.96;94.33;95667.66;5084950;28;20040;-79
2021/08/01 08:21:46;;;;;;;10.55;5.18;;;;;;;14.79;93.78;95677.03;5108548;28;20051;-80
2021/08/01 08:24:11;;;;;;;10.15;5.60;;;;;;;14.80;94.97;95679.44;5110480;28;20040;-79
2021/08/01 08:26:39;;;;;;;10.95;5.15;;;;;;;14.92;95.38;95682.50;5089993;28;20048;-80
2021/08/01 08:29:04;;;;;;;10.00;5.50;;;;;;;15.21;95.90;95681.75;5084947;28;20147;-80
2021/08/01 08:31:30;;;;;;;11.25;5.32;;;;;;;15.40;95.36;95687.19;5109893;28;20040;-79
2021/08/01 08:33:56;;;;;;;10.50;5.43;;;;;;;15.55;94.07;95696.84;5099761;28;20065;-79
2021/08/01 08:36:22;;;;;;;11.43;4.97;;;;;;;15.43;92.82;95695.34;5117708;28;20100;-80
2021/08/01 08:38:48;;;;;;;12.63;4.90;;;;;;;15.25;94.39;95690.75;5092382;28;20047;-80
2021/08/01 08:41:16;;;;;;;13.38;5.03;;;;;;;15.27;94.11;95696.53;5107747;28;20070;-79
2021/08/01 08:43:43;;;;;;;13.63;4.60;;;;;;;15.32;94.11;95696.50;5113097;28;20044;-80
2021/08/01 08:46:10;;;;;;;10.38;4.43;;;;;;;15.33;93.60;95698.09;5113328;28;20111;-79
2021/08/01 08:48:35;;;;;;;9.85;4.03;;;;;;;15.28;91.75;95699.97;5104477;28;20101;-79
2021/08/01 08:51:02;;;;;;;10.30;4.40;;;;;;;15.17;92.48;95699.28;5103158;28;20044;-79
2021/08/01 08:53:30;;;;;;;11.25;4.93;;;;;;;15.12;92.80;95697.47;5102341;28;20163;-79
2021/08/01 08:55:57;;;;;;;11.15;4.78;;;;;;;15.26;92.92;95691.53;5102946;28;20043;-79
2021/08/01 08:58:26;;;;;;;10.02;5.45;;;;;;;15.34;92.71;95704.19;5083886;28;20051;-79
2021/08/01 09:00:55;;;;;;;10.80;4.85;;;;;;;15.33;92.75;95706.03;5101404;28;20420;-78
2021/08/01 09:03:21;;;;;;;9.10;4.50;;;;;;;15.44;93.51;95704.91;5103288;28;20040;-79
2021/08/01 09:05:54;;;;;;;12.10;6.28;;;;;;;15.33;93.12;95703.38;5104731;28;20101;-79
2021/08/01 09:08:20;;;;;;;11.40;5.25;;;;;;;15.37;92.89;95715.03;5102595;28;20123;-78
2021/08/01 09:10:46;;;;;;;10.93;5.28;;;;;;;15.38;92.63;95723.75;5102598;28;20078;-79
2021/08/01 09:13:13;;;;;;;11.48;6.18;;;;;;;15.38;93.05;95719.25;5083935;28;20048;-79
2021/08/01 09:15:39;;;;;;;13.02;6.50;;;;;;;15.35;94.12;95727.75;5102098;28;20047;-79
2021/08/01 09:18:12;;;;;;;10.85;6.20;;;;;;;15.43;93.54;95721.84;5101111;28;20036;-79
2021/08/01 09:20:50;;;;;;;11.80;7.07;;;;;;;15.55;92.97;95726.00;5101754;28;20055;-79
2021/08/01 09:23:16;;;;;;;10.82;6.00;;;;;;;15.49;92.73;95727.91;5083135;28;20117;-79
2021/08/01 09:25:43;;;;;;;11.23;6.55;;;;;;;15.49;92.77;95733.19;5101719;28;20365;-79
2021/08/01 09:28:14;;;;;;;13.27;6.95;;;;;;;15.69;93.96;95733.06;5101006;28;20504;-78
2021/08/01 09:30:47;;;;;;;15.93;8.05;;;;;;;15.58;93.98;95736.84;5084053;28;20048;-79
2021/08/01 09:33:17;;;;;;;13.60;8.18;;;;;;;15.72;94.38;95739.69;5101833;28;20057;-78
2021/08/01 09:35:43;;;;;;;13.82;8.48;;;;;;;15.93;94.06;95733.13;5101665;28;20058;-79
2021/08/01 09:38:09;;;;;;;12.93;7.35;;;;;;;16.13;92.76;95744.56;5101219;28;20040;-79
2021/08/01 09:40:35;;;;;;;12.45;7.22;;;;;;;16.37;91.98;95739.28;5101244;28;20181;-79
2021/08/01 09:43:08;;;;;;;11.52;6.88;;;;;;;16.22;91.82;95745.53;5102033;28;20044;-79
2021/08/01 09:45:34;;;;;;;13.55;7.70;;;;;;;16.09;92.33;95735.59;5102151;28;20035;-79
2021/08/01 09:48:16;;;;;;;13.23;7.57;;;;;;;16.25;91.52;95740.47;5103520;28;20044;-79
2021/08/01 09:50:57;;;;;;;13.02;7.85;;;;;;;16.18;91.30;95736.56;5103560;28;20090;-79
2021/08/01 09:53:23;;;;;;;12.18;7.50;;;;;;;16.10;91.74;95737.19;5103779;28;20036;-80
2021/08/01 09:56:09;;;;;;;12.65;7.43;;;;;;;16.07;92.15;95727.13;5109073;28;20044;-79
2021/08/01 09:58:38;;;;;;;13.13;7.75;;;;;;;16.29;92.09;95722.09;5115374;28;20057;-77
2021/08/01 10:01:06;;;;;;;14.90;8.88;;;;;;;16.21;93.14;95718.22;5115783;28;20028;-79
2021/08/01 10:03:38;;;;;;;12.45;7.93;;;;;;;16.05;91.63;95714.16;5116009;28;20067;-78
2021/08/01 10:06:11;;;;;;;12.77;8.60;;;;;;;16.06;93.71;95710.41;5090525;28;20043;-79
2021/08/01 10:08:38;;;;;;;16.40;9.02;;;;;;;16.27;93.47;95711.78;5104081;28;20135;-80
2021/08/01 10:11:09;;;;;;;14.17;9.17;;;;;;;16.19;92.59;95714.25;5086461;28;20044;-79
2021/08/01 10:13:34;;;;;;;14.27;8.60;;;;;;;16.13;91.50;95707.41;5107625;28;20099;-79
2021/08/01 10:16:00;;;;;;;12.80;7.93;;;;;;;16.15;89.83;95710.59;5108078;28;20044;-76
2021/08/01 10:18:28;;;;;;;14.18;9.13;;;;;;;15.98;92.27;95725.09;5105670;28;20063;-80
2021/08/01 10:20:55;;;;;;;13.88;9.05;;;;;;;16.01;93.13;95713.91;5086182;28;20040;-79
2021/08/01 10:23:21;;;;;;;15.43;9.27;;;;;;;15.83;93.27;95717.28;5106084;28;20174;-80
2021/08/01 10:25:48;;;;;;;17.40;10.60;;;;;;;15.98;92.64;95714.50;5102948;28;20040;-79
2021/08/01 10:28:21;;;;;;;19.77;11.15;;;;;;;16.22;92.39;95713.69;5083024;28;20040;-79
2021/08/01 10:30:48;;;;;;;23.70;12.60;;;;;;;16.10;94.46;95710.66;5102181;28;20044;-79
2021/08/01 10:33:18;;;;;;;16.95;9.52;;;;;;;16.19;91.52;95709.72;5108796;28;20031;-79
2021/08/01 10:35:54;;;;;;;14.63;8.90;;;;;;;16.13;92.59;95712.72;5113172;28;20051;-80
2021/08/01 10:38:23;;;;;;;15.15;8.88;;;;;;;16.38;92.59;95709.00;5086054;28;20484;-79
2021/08/01 10:40:55;;;;;;;15.70;8.82;;;;;;;16.27;90.38;95711.78;5104428;28;20098;-80
2021/08/01 10:43:29;;;;;;;19.90;10.05;;;;;;;16.30;92.66;95714.91;5099207;28;20058;-78
2021/08/01 10:45:56;;;;;;;13.70;8.23;;;;;;;16.47;92.00;95712.59;5099781;28;20067;-78
2021/08/01 10:48:24;;;;;;;14.60;8.67;;;;;;;16.54;91.57;95716.47;5108330;28;20065;-79
2021/08/01 10:50:50;;;;;;;15.43;9.32;;;;;;;16.70;91.22;95703.00;5092312;28;20041;-81
2021/08/01 10:53:27;;;;;;;16.40;8.75;;;;;;;17.09;90.33;95709.91;5108981;28;20055;-81
2021/08/01 10:56:37;;;;;;;13.57;8.57;;;;;;;17.18;89.86;95706.31;5104306;28;20109;-81
2021/08/01 10:59:03;;;;;;;13.25;8.35;;;;;;;17.02;89.72;95695.13;5082655;28;20539;-81
2021/08/01 11:01:28;;;;;;;13.27;7.53;;;;;;;16.86;88.21;95696.44;5108421;28;20059;-81
2021/08/01 11:04:27;;;;;;;11.95;7.13;;;;;;;17.05;88.13;95694.53;5091086;28;20036;-80
2021/08/01 11:06:53;;;;;;;11.82;6.40;;;;;;;16.83;86.55;95691.69;5108096;28;20052;-82
2021/08/01 11:09:22;;;;;;;22.00;9.80;;;;;;;17.01;86.73;95698.88;5100440;28;20048;-81
2021/08/01 11:12:33;;;;;;;11.50;6.05;;;;;;;17.07;85.81;95696.94;5101881;28;20044;-78
2021/08/01 11:15:00;;;;;;;10.95;5.85;;;;;;;17.19;86.26;95694.59;5082204;28;20084;-77
2021/08/01 11:18:11;;;;;;;10.18;5.93;;;;;;;17.44;86.97;95696.06;5083459;28;20048;-79
2021/08/01 11:20:50;;;;;;;10.63;5.82;;;;;;;17.42;83.80;95692.91;5052741;28;20056;-80
2021/08/01 11:23:18;;;;;;;9.20;4.85;;;;;;;17.50;82.58;95681.59;5105745;28;20044;-79
2021/08/01 11:26:08;;;;;;;10.65;5.43;;;;;;;17.68;82.84;95679.97;5103695;28;20042;-78
2021/08/01 11:28:35;;;;;;;9.25;4.22;;;;;;;18.02;82.14;95679.63;5100410;28;20380;-79
2021/08/01 11:31:23;;;;;;;10.23;4.53;;;;;;;17.82;82.74;95683.47;5100677;28;20121;-79